createdAt,value
2023-10-22T00:01:04.526Z,52.07
2023-10-22T00:02:37.990Z,52.20
2023-10-22T00:04:10.363Z,51.96
2023-10-22T00:05:43.845Z,52.02
2023-10-22T00:07:16.317Z,52.37
2023-10-22T00:08:49.816Z,52.67
2023-10-22T00:10:22.035Z,52.44
2023-10-22T00:11:55.393Z,52.58
2023-10-22T00:13:32.136Z,52.51
2023-10-22T00:15:05.421Z,52.82
2023-10-22T00:16:38.670Z,52.68
2023-10-22T00:18:12.028Z,52.66
2023-10-22T00:19:44.233Z,52.43
2023-10-22T00:21:17.683Z,52.46
2023-10-22T00:22:50.274Z,52.83
2023-10-22T00:24:24.579Z,53.15
2023-10-22T00:25:56.794Z,53.38
2023-10-22T00:27:30.402Z,52.47
2023-10-22T00:29:04.116Z,53.04
2023-10-22T00:30:37.857Z,53.19
2023-10-22T00:32:10.066Z,52.99
2023-10-22T00:33:43.601Z,52.70
2023-10-22T00:35:16.047Z,53.15
2023-10-22T00:36:49.521Z,53.02
2023-10-22T00:38:21.742Z,53.51
2023-10-22T00:39:55.236Z,53.08
2023-10-22T00:41:27.456Z,53.29
2023-10-22T00:43:06.178Z,54.24
2023-10-22T00:44:41.422Z,53.81
2023-10-22T00:46:18.525Z,54.58
2023-10-22T00:47:52.165Z,53.58
2023-10-22T00:49:24.951Z,53.52
2023-10-22T00:50:59.222Z,53.75
2023-10-22T00:52:31.672Z,53.78
2023-10-22T00:54:05.448Z,53.69
2023-10-22T00:55:40.807Z,53.68
2023-10-22T00:57:15.056Z,53.57
2023-10-22T00:58:47.474Z,53.74
2023-10-22T01:00:23.012Z,53.57
2023-10-22T01:01:55.454Z,53.22
2023-10-22T01:03:28.964Z,52.91
2023-10-22T01:05:01.826Z,52.97
2023-10-22T01:06:37.549Z,52.80
2023-10-22T01:08:10.837Z,52.98
2023-10-22T01:09:45.803Z,52.84
2023-10-22T01:11:18.218Z,52.50
2023-10-22T01:12:51.469Z,52.59
2023-10-22T01:14:23.912Z,52.72
2023-10-22T01:15:58.667Z,52.75
2023-10-22T01:17:32.429Z,52.60
2023-10-22T01:19:04.801Z,52.71
2023-10-22T01:20:38.098Z,52.69
2023-10-22T01:22:11.392Z,52.23
2023-10-22T01:23:45.337Z,52.47
2023-10-22T01:25:19.199Z,52.46
2023-10-22T01:26:51.537Z,52.58
2023-10-22T01:28:24.780Z,52.26
2023-10-22T01:29:58.833Z,52.07
2023-10-22T01:31:32.172Z,52.21
2023-10-22T01:33:04.591Z,51.82
2023-10-22T01:34:37.998Z,52.00
2023-10-22T01:36:10.531Z,51.93
2023-10-22T01:37:45.324Z,52.72
2023-10-22T01:39:19.563Z,52.78
2023-10-22T01:40:52.777Z,52.68
2023-10-22T01:42:25.135Z,53.00
2023-10-22T01:43:59.911Z,53.07
2023-10-22T01:45:32.230Z,53.29
2023-10-22T01:47:05.699Z,53.75
2023-10-22T01:48:39.782Z,53.42
2023-10-22T01:50:13.445Z,53.31
2023-10-22T01:51:45.729Z,53.57
2023-10-22T01:53:18.939Z,53.52
2023-10-22T01:54:52.789Z,53.32
2023-10-22T01:56:26.267Z,53.36
2023-10-22T01:57:59.744Z,53.36
2023-10-22T01:59:32.997Z,53.21
2023-10-22T02:01:05.797Z,52.94
2023-10-22T02:02:39.256Z,52.91
2023-10-22T02:04:12.638Z,52.69
2023-10-22T02:05:46.594Z,52.54
2023-10-22T02:07:20.248Z,52.77
2023-10-22T02:08:53.497Z,52.98
2023-10-22T02:10:27.236Z,52.70
2023-10-22T02:12:01.519Z,52.68
2023-10-22T02:13:34.186Z,52.67
2023-10-22T02:15:08.562Z,52.90
2023-10-22T02:16:41.224Z,52.76
2023-10-22T02:18:14.561Z,52.61
2023-10-22T02:19:47.191Z,52.91
2023-10-22T02:21:22.726Z,53.06
2023-10-22T02:22:56.033Z,52.63
2023-10-22T02:24:29.745Z,52.49
2023-10-22T02:26:05.906Z,52.52
2023-10-22T02:27:38.282Z,52.83
2023-10-22T02:29:11.529Z,52.59
2023-10-22T02:30:44.860Z,52.71
2023-10-22T02:32:17.294Z,52.74
2023-10-22T02:33:50.616Z,52.85
2023-10-22T02:35:22.968Z,52.74
2023-10-22T02:36:57.846Z,52.49
2023-10-22T02:38:31.655Z,52.98
2023-10-22T02:40:04.828Z,52.90
2023-10-22T02:41:39.636Z,52.56
2023-10-22T02:43:13.164Z,52.63
2023-10-22T02:44:45.631Z,52.43
2023-10-22T02:46:18.921Z,52.53
2023-10-22T02:47:51.423Z,52.47
2023-10-22T02:49:24.760Z,52.43
2023-10-22T02:50:57.207Z,52.49
2023-10-22T02:52:30.465Z,52.50
2023-10-22T02:54:02.689Z,52.59
2023-10-22T02:55:35.972Z,52.64
2023-10-22T02:57:10.861Z,52.61
2023-10-22T02:58:43.672Z,52.48
2023-10-22T03:00:29.715Z,52.44
2023-10-22T03:02:09.662Z,52.43
2023-10-22T03:03:42.161Z,52.40
2023-10-22T03:05:15.518Z,52.57
2023-10-22T03:06:47.780Z,52.55
2023-10-22T03:08:20.964Z,52.17
2023-10-22T03:09:53.521Z,52.51
2023-10-22T03:11:26.739Z,52.48
2023-10-22T03:13:01.629Z,52.42
2023-10-22T03:14:34.930Z,52.80
2023-10-22T03:16:12.699Z,53.10
2023-10-22T03:17:46.009Z,53.12
2023-10-22T03:19:18.933Z,53.56
2023-10-22T03:20:52.243Z,53.60
2023-10-22T03:22:26.967Z,53.62
2023-10-22T03:23:59.757Z,53.79
2023-10-22T03:25:33.734Z,53.46
2023-10-22T03:27:06.822Z,53.36
2023-10-22T03:28:41.844Z,53.50
2023-10-22T03:30:14.990Z,53.67
2023-10-22T03:31:48.432Z,53.69
2023-10-22T03:33:20.667Z,53.58
2023-10-22T03:34:54.203Z,53.87
2023-10-22T03:36:27.493Z,53.72
2023-10-22T03:38:00.450Z,53.93
2023-10-22T03:39:33.756Z,53.84
2023-10-22T03:41:07.476Z,53.62
2023-10-22T03:42:40.966Z,53.65
2023-10-22T03:44:15.684Z,53.79
2023-10-22T03:45:48.661Z,53.96
2023-10-22T03:47:22.842Z,54.00
2023-10-22T03:48:58.486Z,53.85
2023-10-22T03:50:30.705Z,54.17
2023-10-22T03:52:06.884Z,54.29
2023-10-22T03:53:39.509Z,54.11
2023-10-22T03:55:12.868Z,53.90
2023-10-22T03:56:45.214Z,53.96
2023-10-22T03:58:18.699Z,53.73
2023-10-22T03:59:53.133Z,53.69
2023-10-22T04:01:26.337Z,53.63
2023-10-22T04:02:58.654Z,53.56
2023-10-22T04:04:31.959Z,53.63
2023-10-22T04:06:04.672Z,53.43
2023-10-22T04:07:37.987Z,53.70
2023-10-22T04:09:10.310Z,53.70
2023-10-22T04:10:47.308Z,54.25
2023-10-22T04:12:20.589Z,54.10
2023-10-22T04:13:52.820Z,54.52
2023-10-22T04:15:28.726Z,54.24
2023-10-22T04:17:01.943Z,54.43
2023-10-22T04:18:34.351Z,54.63
2023-10-22T04:20:09.086Z,54.57
2023-10-22T04:21:42.897Z,54.22
2023-10-22T04:23:15.314Z,54.22
2023-10-22T04:24:48.771Z,53.86
2023-10-22T04:26:21.040Z,53.89
2023-10-22T04:27:55.668Z,54.07
2023-10-22T04:29:27.867Z,54.11
2023-10-22T04:31:02.687Z,54.09
2023-10-22T04:32:35.533Z,54.02
2023-10-22T04:34:09.567Z,54.25
2023-10-22T04:35:41.779Z,54.26
2023-10-22T04:37:16.726Z,54.13
2023-10-22T04:38:50.620Z,54.20
2023-10-22T04:40:23.132Z,53.98
2023-10-22T04:41:56.320Z,53.91
2023-10-22T04:43:31.633Z,53.92
2023-10-22T04:45:05.315Z,54.04
2023-10-22T04:46:39.217Z,54.02
2023-10-22T04:48:12.625Z,54.06
2023-10-22T04:49:45.918Z,53.95
2023-10-22T04:51:19.396Z,53.99
2023-10-22T04:52:51.802Z,54.32
2023-10-22T04:54:25.577Z,54.28
2023-10-22T04:55:59.697Z,54.16
2023-10-22T04:57:32.889Z,54.26
2023-10-22T04:59:06.652Z,54.18
2023-10-22T05:00:40.710Z,53.83
2023-10-22T05:02:14.535Z,53.98
2023-10-22T05:03:47.882Z,53.97
2023-10-22T05:05:21.341Z,53.91
2023-10-22T05:06:56.313Z,53.61
2023-10-22T05:08:28.706Z,53.66
2023-10-22T05:10:02.074Z,53.66
2023-10-22T05:11:34.432Z,53.84
2023-10-22T05:13:10.697Z,53.86
2023-10-22T05:14:43.035Z,54.03
2023-10-22T05:16:16.462Z,54.19
2023-10-22T05:17:50.188Z,54.15
2023-10-22T05:19:23.511Z,54.17
2023-10-22T05:21:03.491Z,54.37
2023-10-22T05:22:35.868Z,54.06
2023-10-22T05:24:10.987Z,53.79
2023-10-22T05:25:43.355Z,53.65
2023-10-22T05:27:17.274Z,53.65
2023-10-22T05:28:49.473Z,53.48
2023-10-22T05:30:23.083Z,53.35
2023-10-22T05:31:55.331Z,53.23
2023-10-22T05:33:30.196Z,52.98
2023-10-22T05:35:05.052Z,53.12
2023-10-22T05:36:37.348Z,53.12
2023-10-22T05:38:10.598Z,52.97
2023-10-22T05:39:43.291Z,53.02
2023-10-22T05:41:22.873Z,52.97
2023-10-22T05:42:55.209Z,52.83
2023-10-22T05:44:28.457Z,52.80
2023-10-22T05:46:00.816Z,52.92
2023-10-22T05:47:34.182Z,52.92
2023-10-22T05:49:09.086Z,52.91
2023-10-22T05:50:42.362Z,52.46
2023-10-22T05:52:15.601Z,52.42
2023-10-22T05:53:47.852Z,52.42
2023-10-22T05:55:21.436Z,52.81
2023-10-22T05:56:54.826Z,52.70
2023-10-22T05:58:27.874Z,52.57
2023-10-22T06:00:01.201Z,52.28
2023-10-22T06:01:33.831Z,52.48
2023-10-22T06:03:07.052Z,52.40
2023-10-22T06:04:40.840Z,52.23
2023-10-22T06:06:14.135Z,52.06
2023-10-22T06:07:47.263Z,52.22
2023-10-22T06:09:20.560Z,52.06
2023-10-22T06:10:52.957Z,52.14
2023-10-22T06:12:26.429Z,52.35
2023-10-22T06:13:58.579Z,52.20
2023-10-22T06:15:31.942Z,52.54
2023-10-22T06:17:05.550Z,52.44
2023-10-22T06:18:39.399Z,52.48
2023-10-22T06:20:14.133Z,53.13
2023-10-22T06:21:48.006Z,53.56
2023-10-22T06:23:21.751Z,54.18
2023-10-22T06:24:54.973Z,54.26
2023-10-22T06:26:28.227Z,54.37
2023-10-22T06:28:00.969Z,54.14
2023-10-22T06:29:34.254Z,54.42
2023-10-22T06:31:07.368Z,54.08
2023-10-22T06:32:40.628Z,54.23
2023-10-22T06:34:12.917Z,54.03
2023-10-22T06:35:48.182Z,54.04
2023-10-22T06:37:20.714Z,53.97
2023-10-22T06:38:53.918Z,53.94
2023-10-22T06:40:26.277Z,54.15
2023-10-22T06:42:01.095Z,54.43
2023-10-22T06:43:33.496Z,54.21
2023-10-22T06:45:08.781Z,53.85
2023-10-22T06:46:41.068Z,54.08
2023-10-22T06:48:14.748Z,53.84
2023-10-22T06:49:47.240Z,53.72
2023-10-22T06:51:23.476Z,53.49
2023-10-22T06:52:55.806Z,53.73
2023-10-22T06:54:29.890Z,53.29
2023-10-22T06:56:03.810Z,53.50
2023-10-22T06:57:37.110Z,53.36
2023-10-22T06:59:09.858Z,53.34
2023-10-22T07:00:43.273Z,53.14
2023-10-22T07:02:17.581Z,53.14
2023-10-22T07:03:50.912Z,53.37
2023-10-22T07:05:23.998Z,52.99
2023-10-22T07:06:58.796Z,53.25
2023-10-22T07:08:32.372Z,52.69
2023-10-22T07:10:05.111Z,52.07
2023-10-22T07:11:39.987Z,52.06
2023-10-22T07:13:12.193Z,51.88
2023-10-22T07:15:03.960Z,50.19
2023-10-22T07:16:37.210Z,51.29
2023-10-22T07:18:09.480Z,50.70
2023-10-22T07:19:43.282Z,50.85
2023-10-22T07:21:15.766Z,50.00
2023-10-22T07:22:50.382Z,49.90
2023-10-22T07:24:23.285Z,49.69
2023-10-22T07:25:58.545Z,49.56
2023-10-22T07:27:30.867Z,49.09
2023-10-22T07:29:04.181Z,49.60
2023-10-22T07:30:36.479Z,48.94
2023-10-22T07:32:11.846Z,48.83
2023-10-22T07:33:44.434Z,48.37
2023-10-22T07:35:17.961Z,48.08
2023-10-22T07:36:50.213Z,47.82
2023-10-22T07:38:26.005Z,47.73
2023-10-22T07:39:59.229Z,48.03
2023-10-22T07:41:32.571Z,47.53
2023-10-22T07:43:05.640Z,47.89
2023-10-22T07:44:39.181Z,47.22
2023-10-22T07:46:12.361Z,47.06
2023-10-22T07:47:45.819Z,46.51
2023-10-22T07:49:18.124Z,46.46
2023-10-22T07:50:51.532Z,46.17
2023-10-22T07:52:24.047Z,45.75
2023-10-22T07:53:58.712Z,45.31
2023-10-22T07:55:31.051Z,43.50
2023-10-22T07:57:06.635Z,43.81
2023-10-22T07:58:40.288Z,43.66
2023-10-22T08:00:15.469Z,43.59
2023-10-22T08:01:47.842Z,42.68
2023-10-22T08:03:21.481Z,41.73
2023-10-22T08:04:54.016Z,42.09
2023-10-22T08:06:27.239Z,41.30
2023-10-22T08:07:59.545Z,40.83
2023-10-22T08:09:34.319Z,40.62
2023-10-22T08:11:07.248Z,40.06
2023-10-22T08:12:40.615Z,38.35
2023-10-22T08:14:12.993Z,38.43
2023-10-22T08:15:47.509Z,38.95
2023-10-22T08:17:19.903Z,36.07
2023-10-22T08:18:53.239Z,36.76
2023-10-22T08:20:25.577Z,36.23
2023-10-22T08:21:59.048Z,37.19
2023-10-22T08:23:32.186Z,35.77
2023-10-22T08:25:07.735Z,35.67
2023-10-22T08:26:40.194Z,35.55
2023-10-22T08:28:13.623Z,35.12
2023-10-22T08:29:48.457Z,33.51
2023-10-22T08:31:20.940Z,34.02
2023-10-22T08:32:54.300Z,33.43
2023-10-22T08:34:26.584Z,33.22
2023-10-22T08:36:06.276Z,31.49
2023-10-22T08:37:39.140Z,32.85
2023-10-22T08:39:13.095Z,32.15
2023-10-22T08:40:47.203Z,32.66
2023-10-22T08:42:25.432Z,32.70
2023-10-22T08:43:59.657Z,32.47
2023-10-22T08:45:33.456Z,31.47
2023-10-22T08:47:05.887Z,31.26
2023-10-22T08:48:39.921Z,30.88
2023-10-22T08:50:13.060Z,30.13
2023-10-22T08:51:46.330Z,30.25
2023-10-22T08:53:18.923Z,29.73
2023-10-22T08:54:53.556Z,30.21
2023-10-22T08:56:28.378Z,30.47
2023-10-22T08:58:01.610Z,30.24
2023-10-22T08:59:37.702Z,29.92
2023-10-22T09:01:10.208Z,29.74
2023-10-22T09:02:45.430Z,29.43
2023-10-22T09:04:19.712Z,29.87
2023-10-22T09:05:52.550Z,29.11
2023-10-22T09:07:54.028Z,28.18
2023-10-22T09:09:29.798Z,29.17
2023-10-22T09:11:14.133Z,29.16
2023-10-22T09:12:47.756Z,29.59
2023-10-22T09:14:23.583Z,29.17
2023-10-22T09:15:56.146Z,29.30
2023-10-22T09:17:30.754Z,28.90
2023-10-22T09:19:03.384Z,29.02
2023-10-22T09:20:37.021Z,29.32
2023-10-22T09:22:23.726Z,29.39
2023-10-22T09:24:05.187Z,28.74
2023-10-22T09:25:38.534Z,29.28
2023-10-22T09:27:10.923Z,29.65
2023-10-22T09:28:48.901Z,28.82
2023-10-22T09:30:31.631Z,28.83
2023-10-22T09:32:10.149Z,28.24
2023-10-22T09:33:43.957Z,28.13
2023-10-22T09:35:16.425Z,27.88
2023-10-22T09:36:53.847Z,27.42
2023-10-22T09:38:41.349Z,26.31
2023-10-22T09:40:21.180Z,27.54
2023-10-22T09:42:05.662Z,27.99
2023-10-22T09:43:48.379Z,27.94
2023-10-22T09:45:24.840Z,27.63
2023-10-22T09:47:01.585Z,28.02
2023-10-22T09:48:35.997Z,27.51
2023-10-22T09:50:13.796Z,26.15
2023-10-22T09:51:48.343Z,26.05
2023-10-22T09:53:28.229Z,26.85
2023-10-22T09:55:05.917Z,26.62
2023-10-22T09:56:45.521Z,27.54
2023-10-22T09:58:19.785Z,27.26
2023-10-22T09:59:55.330Z,27.55
2023-10-22T10:01:32.328Z,27.60
2023-10-22T10:03:05.548Z,27.35
2023-10-22T10:04:41.951Z,26.88
2023-10-22T10:06:15.990Z,26.65
2023-10-22T10:07:49.959Z,27.15
2023-10-22T10:09:23.210Z,27.26
2023-10-22T10:10:56.814Z,27.45
2023-10-22T10:12:32.545Z,27.83
2023-10-22T10:14:13.769Z,27.57
2023-10-22T10:15:59.957Z,27.68
2023-10-22T10:17:33.380Z,28.70
2023-10-22T10:19:09.295Z,27.67
2023-10-22T10:20:43.689Z,28.17
2023-10-22T10:22:41.205Z,26.69
2023-10-22T10:24:21.409Z,26.93
2023-10-22T10:25:55.599Z,27.33
2023-10-22T10:27:28.034Z,26.74
2023-10-22T10:29:07.550Z,27.05
2023-10-22T10:30:41.105Z,26.60
2023-10-22T10:32:23.826Z,25.85
2023-10-22T10:34:03.228Z,25.72
2023-10-22T10:35:45.405Z,25.63
2023-10-22T10:37:19.934Z,26.07
2023-10-22T10:38:52.229Z,25.78
2023-10-22T10:40:43.589Z,25.15
2023-10-22T10:42:49.417Z,25.44
2023-10-22T10:44:21.662Z,25.80
2023-10-22T10:46:26.755Z,25.46
2023-10-22T10:48:02.600Z,26.02
2023-10-22T10:49:58.840Z,26.33
2023-10-22T10:51:32.087Z,25.61
2023-10-22T10:53:04.825Z,25.76
2023-10-22T10:54:38.212Z,25.52
2023-10-22T10:56:10.695Z,25.39
2023-10-22T10:57:46.226Z,25.95
2023-10-22T10:59:29.212Z,24.70
2023-10-22T11:01:05.199Z,24.83
2023-10-22T11:02:42.984Z,24.16
2023-10-22T11:04:16.688Z,25.24
2023-10-22T11:05:50.533Z,24.85
2023-10-22T11:07:27.446Z,24.88
2023-10-22T11:09:01.095Z,24.60
2023-10-22T11:10:34.502Z,24.92
2023-10-22T11:12:09.467Z,24.75
2023-10-22T11:13:42.998Z,25.26
2023-10-22T11:15:17.665Z,24.79
2023-10-22T11:16:55.347Z,23.78
2023-10-22T11:18:28.992Z,24.67
2023-10-22T11:20:03.050Z,24.50
2023-10-22T11:21:38.295Z,24.97
2023-10-22T11:23:19.148Z,23.92
2023-10-22T11:24:52.592Z,25.11
2023-10-22T11:26:25.939Z,24.40
2023-10-22T11:27:59.902Z,24.76
2023-10-22T11:29:40.438Z,23.62
2023-10-22T11:31:25.417Z,23.70
2023-10-22T11:32:57.767Z,24.92
2023-10-22T11:34:31.090Z,24.82
2023-10-22T11:36:20.542Z,23.71
2023-10-22T11:37:55.300Z,24.36
2023-10-22T11:39:41.574Z,24.16
2023-10-22T11:41:17.365Z,24.37
2023-10-22T11:42:50.797Z,24.04
2023-10-22T11:44:32.033Z,23.47
2023-10-22T11:46:05.318Z,24.24
2023-10-22T11:47:37.629Z,23.84
2023-10-22T11:49:12.259Z,24.02
2023-10-22T11:50:49.358Z,23.36
2023-10-22T11:52:53.262Z,23.55
2023-10-22T11:54:45.911Z,23.36
2023-10-22T11:56:19.273Z,23.81
2023-10-22T11:57:51.617Z,24.01
2023-10-22T11:59:24.881Z,24.10
2023-10-22T12:00:57.388Z,23.33
2023-10-22T12:02:30.849Z,23.42
2023-10-22T12:04:04.758Z,24.03
2023-10-22T12:05:38.118Z,23.68
2023-10-22T12:07:10.570Z,23.56
2023-10-22T12:08:46.523Z,23.93
2023-10-22T12:10:19.374Z,24.12
2023-10-22T12:11:54.714Z,23.95
2023-10-22T12:13:27.133Z,23.97
2023-10-22T12:15:00.649Z,23.52
2023-10-22T12:16:34.179Z,23.05
2023-10-22T12:18:08.748Z,23.22
2023-10-22T12:19:41.441Z,23.73
2023-10-22T12:21:15.400Z,23.35
2023-10-22T12:22:47.778Z,23.16
2023-10-22T12:24:27.148Z,23.46
2023-10-22T12:26:01.073Z,23.24
2023-10-22T12:27:34.563Z,23.05
2023-10-22T12:29:06.951Z,22.62
2023-10-22T12:30:41.436Z,23.35
2023-10-22T12:32:14.146Z,23.14
2023-10-22T12:33:47.860Z,22.86
2023-10-22T12:35:22.908Z,23.36
2023-10-22T12:36:57.169Z,22.62
2023-10-22T12:38:30.672Z,22.83
2023-10-22T12:40:07.001Z,23.33
2023-10-22T12:41:40.259Z,22.93
2023-10-22T12:43:12.602Z,22.77
2023-10-22T12:44:46.457Z,22.54
2023-10-22T12:46:18.942Z,23.10
2023-10-22T12:47:52.296Z,23.49
2023-10-22T12:49:24.660Z,23.23
2023-10-22T12:50:58.228Z,22.70
2023-10-22T12:52:31.679Z,22.81
2023-10-22T12:54:05.767Z,23.38
2023-10-22T12:55:39.433Z,22.77
2023-10-22T12:57:13.347Z,22.85
2023-10-22T12:58:46.072Z,23.09
2023-10-22T13:00:19.729Z,22.89
2023-10-22T13:01:52.030Z,22.61
2023-10-22T13:03:25.698Z,22.85
2023-10-22T13:04:58.110Z,23.11
2023-10-22T13:06:31.705Z,22.66
2023-10-22T13:08:05.392Z,22.97
2023-10-22T13:09:38.689Z,22.93
2023-10-22T13:11:15.673Z,23.30
2023-10-22T13:13:02.468Z,23.25
2023-10-22T13:14:42.874Z,23.04
2023-10-22T13:16:15.358Z,23.31
2023-10-22T13:17:48.790Z,22.87
2023-10-22T13:19:22.053Z,23.26
2023-10-22T13:20:54.289Z,23.00
2023-10-22T13:22:27.916Z,23.36
2023-10-22T13:24:02.878Z,23.26
2023-10-22T13:25:35.978Z,23.98
2023-10-22T13:27:14.905Z,23.21
2023-10-22T13:28:49.280Z,23.29
2023-10-22T13:30:21.778Z,23.57
2023-10-22T13:31:55.282Z,23.31
2023-10-22T13:33:28.933Z,23.30
2023-10-22T13:35:01.673Z,23.84
2023-10-22T13:36:35.426Z,23.79
2023-10-22T13:38:07.701Z,23.40
2023-10-22T13:39:40.951Z,23.93
2023-10-22T13:41:14.267Z,24.19
2023-10-22T13:42:48.337Z,23.72
2023-10-22T13:44:21.918Z,23.89
2023-10-22T13:45:54.576Z,23.62
2023-10-22T13:47:28.299Z,24.02
2023-10-22T13:49:01.978Z,24.11
2023-10-22T13:50:35.248Z,24.24
2023-10-22T13:52:07.441Z,24.23
2023-10-22T13:53:40.770Z,23.84
2023-10-22T13:55:13.109Z,23.94
2023-10-22T13:56:46.442Z,24.00
2023-10-22T13:58:21.118Z,24.00
2023-10-22T13:59:53.977Z,24.16
2023-10-22T14:01:27.508Z,23.99
2023-10-22T14:02:59.798Z,24.13
2023-10-22T14:04:33.283Z,24.33
2023-10-22T14:06:07.196Z,24.05
2023-10-22T14:07:41.551Z,24.39
2023-10-22T14:09:14.113Z,24.58
2023-10-22T14:10:47.569Z,24.44
2023-10-22T14:12:20.011Z,24.29
2023-10-22T14:13:55.052Z,24.91
2023-10-22T14:15:29.617Z,24.73
2023-10-22T14:17:02.132Z,24.67
2023-10-22T14:18:35.728Z,24.84
2023-10-22T14:20:09.253Z,25.45
2023-10-22T14:21:43.355Z,25.26
2023-10-22T14:23:15.927Z,25.18
2023-10-22T14:24:53.415Z,25.16
2023-10-22T14:26:26.922Z,24.86
2023-10-22T14:27:59.218Z,25.34
2023-10-22T14:29:33.972Z,25.19
2023-10-22T14:31:08.219Z,25.23
2023-10-22T14:32:41.746Z,25.07
2023-10-22T14:34:25.180Z,25.62
2023-10-22T14:36:02.100Z,25.44
2023-10-22T14:37:35.832Z,25.83
2023-10-22T14:39:08.348Z,25.73
2023-10-22T14:40:42.051Z,26.35
2023-10-22T14:42:14.255Z,26.61
2023-10-22T14:43:47.653Z,26.42
2023-10-22T14:45:21.522Z,26.24
2023-10-22T14:46:54.795Z,26.54
2023-10-22T14:48:27.216Z,26.74
2023-10-22T14:50:00.763Z,26.83
2023-10-22T14:51:34.060Z,27.18
2023-10-22T14:53:07.373Z,27.04
2023-10-22T14:54:39.687Z,27.25
2023-10-22T14:56:13.262Z,27.64
2023-10-22T14:57:45.668Z,28.10
2023-10-22T14:59:19.118Z,27.64
2023-10-22T15:00:52.727Z,28.10
2023-10-22T15:02:26.193Z,28.18
2023-10-22T15:03:58.618Z,28.46
2023-10-22T15:05:32.288Z,28.63
2023-10-22T15:07:05.991Z,29.24
2023-10-22T15:08:38.369Z,29.11
2023-10-22T15:10:12.445Z,29.29
2023-10-22T15:11:44.781Z,29.11
2023-10-22T15:13:18.125Z,29.38
2023-10-22T15:14:50.481Z,30.16
2023-10-22T15:16:25.568Z,29.78
2023-10-22T15:17:57.991Z,30.73
2023-10-22T15:19:32.433Z,30.94
2023-10-22T15:21:05.156Z,30.75
2023-10-22T15:22:39.944Z,31.61
2023-10-22T15:24:12.373Z,32.67
2023-10-22T15:25:46.562Z,32.67
2023-10-22T15:27:18.958Z,32.84
2023-10-22T15:28:52.522Z,32.87
2023-10-22T15:30:27.166Z,32.76
2023-10-22T15:32:02.561Z,33.80
2023-10-22T15:33:34.908Z,34.15
2023-10-22T15:35:09.246Z,34.00
2023-10-22T15:36:42.612Z,34.62
2023-10-22T15:38:14.946Z,34.48
2023-10-22T15:39:48.345Z,34.54
2023-10-22T15:41:21.811Z,35.00
2023-10-22T15:42:54.450Z,35.41
2023-10-22T15:44:28.085Z,36.04
2023-10-22T15:46:00.467Z,36.47
2023-10-22T15:47:35.592Z,35.85
2023-10-22T15:49:07.908Z,36.41
2023-10-22T15:50:43.607Z,36.27
2023-10-22T15:52:15.945Z,36.72
2023-10-22T15:53:49.915Z,36.98
2023-10-22T15:55:22.359Z,36.94
2023-10-22T15:56:55.582Z,37.01
2023-10-22T15:58:27.924Z,37.43
2023-10-22T16:00:01.604Z,37.48
2023-10-22T16:01:34.933Z,37.14
2023-10-22T16:03:08.750Z,36.97
2023-10-22T16:04:42.442Z,37.07
2023-10-22T16:06:15.199Z,36.99
2023-10-22T16:07:48.586Z,36.85
2023-10-22T16:09:20.832Z,36.84
2023-10-22T16:10:54.433Z,36.86
2023-10-22T16:12:28.121Z,36.52
2023-10-22T16:14:01.642Z,36.67
2023-10-22T16:15:34.045Z,37.33
2023-10-22T16:17:09.930Z,37.41
2023-10-22T16:18:43.979Z,37.23
2023-10-22T16:20:17.575Z,37.24
2023-10-22T16:21:49.934Z,37.16
2023-10-22T16:23:23.571Z,37.73
2023-10-22T16:24:56.248Z,37.47
2023-10-22T16:26:29.603Z,38.20
2023-10-22T16:28:01.939Z,38.02
2023-10-22T16:29:35.319Z,38.57
2023-10-22T16:31:08.660Z,38.42
2023-10-22T16:32:40.990Z,38.82
2023-10-22T16:34:15.789Z,38.45
2023-10-22T16:35:49.320Z,38.54
2023-10-22T16:37:21.684Z,38.59
2023-10-22T16:38:54.979Z,38.41
2023-10-22T16:40:27.260Z,38.48
2023-10-22T16:42:00.680Z,38.55
2023-10-22T16:43:33.150Z,38.28
2023-10-22T16:45:07.024Z,38.09
2023-10-22T16:46:40.201Z,37.86
2023-10-22T16:48:13.795Z,37.88
2023-10-22T16:49:47.640Z,37.83
2023-10-22T16:51:21.203Z,38.11
2023-10-22T16:52:54.572Z,38.32
2023-10-22T16:54:28.741Z,38.22
2023-10-22T16:56:03.013Z,38.18
2023-10-22T16:57:36.531Z,38.17
2023-10-22T16:59:09.896Z,39.39
2023-10-22T17:00:42.261Z,38.89
2023-10-22T17:02:15.865Z,38.95
2023-10-22T17:03:48.407Z,39.17
2023-10-22T17:05:23.300Z,39.14
2023-10-22T17:06:55.659Z,39.03
2023-10-22T17:08:29.057Z,39.71
2023-10-22T17:10:02.364Z,39.80
2023-10-22T17:11:35.160Z,39.48
2023-10-22T17:13:08.487Z,39.56
2023-10-22T17:14:52.203Z,39.96
2023-10-22T17:16:26.567Z,40.79
2023-10-22T17:17:58.929Z,40.81
2023-10-22T17:19:32.496Z,41.09
2023-10-22T17:21:06.527Z,41.08
2023-10-22T17:22:41.017Z,41.68
2023-10-22T17:24:13.535Z,42.19
2023-10-22T17:25:49.989Z,41.66
2023-10-22T17:27:24.020Z,41.79
2023-10-22T17:28:58.321Z,42.15
2023-10-22T17:30:30.962Z,42.41
2023-10-22T17:32:04.691Z,41.98
2023-10-22T17:33:49.320Z,41.63
2023-10-22T17:35:30.437Z,41.48
2023-10-22T17:37:07.472Z,41.80
2023-10-22T17:38:39.916Z,41.93
2023-10-22T17:40:13.811Z,41.98
2023-10-22T17:41:47.414Z,42.42
2023-10-22T17:43:19.725Z,42.50
2023-10-22T17:44:53.082Z,42.51
2023-10-22T17:46:25.687Z,42.84
2023-10-22T17:48:01.235Z,43.07
2023-10-22T17:49:34.053Z,43.71
2023-10-22T17:51:07.433Z,43.26
2023-10-22T17:52:41.372Z,43.34
2023-10-22T17:54:14.623Z,44.20
2023-10-22T17:55:55.403Z,43.92
2023-10-22T17:57:36.450Z,43.25
2023-10-22T17:59:09.856Z,43.52
2023-10-22T18:00:42.298Z,43.65
2023-10-22T18:02:15.693Z,43.91
2023-10-22T18:03:50.123Z,43.96
2023-10-22T18:05:23.171Z,43.68
2023-10-22T18:06:56.805Z,43.33
2023-10-22T18:08:30.785Z,43.95
2023-10-22T18:10:07.666Z,44.10
2023-10-22T18:11:42.057Z,43.92
2023-10-22T18:13:14.800Z,44.03
2023-10-22T18:14:48.277Z,44.31
2023-10-22T18:16:22.788Z,44.71
2023-10-22T18:17:56.294Z,44.46
2023-10-22T18:19:39.802Z,44.68
2023-10-22T18:21:14.460Z,44.48
2023-10-22T18:22:47.966Z,44.39
2023-10-22T18:24:22.817Z,44.69
2023-10-22T18:26:02.614Z,45.40
2023-10-22T18:27:36.004Z,44.85
2023-10-22T18:29:08.670Z,44.85
2023-10-22T18:30:44.865Z,44.61
2023-10-22T18:32:17.501Z,44.80
2023-10-22T18:33:50.848Z,45.70
2023-10-22T18:35:24.426Z,45.47
2023-10-22T18:36:57.668Z,45.38
2023-10-22T18:38:30.996Z,45.61
2023-10-22T18:40:06.720Z,45.59
2023-10-22T18:41:39.204Z,45.94
2023-10-22T18:43:12.497Z,46.09
2023-10-22T18:44:44.791Z,46.55
2023-10-22T18:46:20.845Z,46.35
2023-10-22T18:47:53.471Z,46.39
2023-10-22T18:49:26.822Z,46.67
2023-10-22T18:51:00.356Z,46.78
2023-10-22T18:52:34.632Z,46.95
2023-10-22T18:54:07.143Z,47.48
2023-10-22T18:55:41.968Z,47.28
2023-10-22T18:57:14.234Z,47.48
2023-10-22T18:58:47.968Z,47.90
2023-10-22T19:00:21.911Z,47.51
2023-10-22T19:01:55.234Z,47.65
2023-10-22T19:03:27.904Z,47.76
2023-10-22T19:05:01.295Z,48.02
2023-10-22T19:06:34.773Z,47.66
2023-10-22T19:08:07.003Z,48.16
2023-10-22T19:09:40.445Z,48.33
2023-10-22T19:11:14.284Z,48.31
2023-10-22T19:12:48.691Z,48.36
2023-10-22T19:14:24.723Z,48.98
2023-10-22T19:16:02.336Z,49.09
2023-10-22T19:17:34.906Z,48.55
2023-10-22T19:19:08.758Z,48.41
2023-10-22T19:20:41.029Z,48.60
2023-10-22T19:22:14.406Z,48.76
2023-10-22T19:23:47.024Z,48.72
2023-10-22T19:25:20.618Z,48.87
2023-10-22T19:26:54.603Z,48.52
2023-10-22T19:28:28.356Z,48.49
2023-10-22T19:30:01.054Z,48.46
2023-10-22T19:31:34.571Z,48.89
2023-10-22T19:33:06.949Z,49.09
2023-10-22T19:34:40.760Z,49.40
2023-10-22T19:36:17.610Z,50.19
2023-10-22T19:37:52.486Z,49.73
2023-10-22T19:39:24.725Z,50.10
2023-10-22T19:40:58.400Z,50.40
2023-10-22T19:42:32.144Z,50.04
2023-10-22T19:44:05.802Z,50.03
2023-10-22T19:45:38.076Z,50.16
2023-10-22T19:47:11.607Z,50.41
2023-10-22T19:48:44.874Z,50.51
2023-10-22T19:50:18.747Z,50.24
2023-10-22T19:51:51.415Z,50.35
2023-10-22T19:53:24.920Z,50.46
2023-10-22T19:54:57.589Z,50.37
2023-10-22T19:56:31.254Z,50.42
2023-10-22T19:58:05.579Z,50.48
2023-10-22T19:59:38.994Z,50.27
2023-10-22T20:01:19.595Z,51.62
2023-10-22T20:02:54.595Z,50.32
2023-10-22T20:04:29.975Z,50.53
2023-10-22T20:06:04.552Z,50.73
2023-10-22T20:07:36.906Z,50.63
2023-10-22T20:09:10.368Z,50.81
2023-10-22T20:10:48.452Z,51.31
2023-10-22T20:12:22.525Z,51.15
2023-10-22T20:13:56.523Z,50.93
2023-10-22T20:15:30.545Z,50.92